sensor_id;sensor_type;location;lat;lon;timestamp;temperature;humidity
8539;DHT22;4307;53.868;11.680;2022-12-11T00:02:07;-6.40;99.90
8539;DHT22;4307;53.868;11.680;2022-12-11T00:04:34;-6.40;99.90
8539;DHT22;4307;53.868;11.680;2022-12-11T00:07:00;-6.40;99.90
8539;DHT22;4307;53.868;11.680;2022-12-11T00:09:27;-6.50;99.90
8539;DHT22;4307;53.868;11.680;2022-12-11T00:11:53;-6.40;99.90
8539;DHT22;4307;53.868;11.680;2022-12-11T00:14:20;-6.50;99.90
8539;DHT22;4307;53.868;11.680;2022-12-11T00:16:47;-6.40;99.90
8539;DHT22;4307;53.868;11.680;2022-12-11T00:19:15;-6.40;99.90
8539;DHT22;4307;53.868;11.680;2022-12-11T00:21:42;-6.40;99.90
8539;DHT22;4307;53.868;11.680;2022-12-11T00:24:09;-6.40;99.90
8539;DHT22;4307;53.868;11.680;2022-12-11T00:26:36;-6.40;99.90
8539;DHT22;4307;53.868;11.680;2022-12-11T00:29:02;-6.50;99.90
8539;DHT22;4307;53.868;11.680;2022-12-11T00:31:29;-6.50;99.90
8539;DHT22;4307;53.868;11.680;2022-12-11T00:33:56;-6.50;99.90
8539;DHT22;4307;53.868;11.680;2022-12-11T00:36:25;-6.60;99.90
8539;DHT22;4307;53.868;11.680;2022-12-11T00:38:53;-6.60;99.90
8539;DHT22;4307;53.868;11.680;2022-12-11T00:41:20;-6.60;99.90
8539;DHT22;4307;53.868;11.680;2022-12-11T00:43:47;-6.60;99.90
8539;DHT22;4307;53.868;11.680;2022-12-11T00:46:14;-6.70;99.90
8539;DHT22;4307;53.868;11.680;2022-12-11T00:48:40;-6.70;99.90
8539;DHT22;4307;53.868;11.680;2022-12-11T00:51:07;-6.70;99.90
8539;DHT22;4307;53.868;11.680;2022-12-11T00:53:35;-6.70;99.90
8539;DHT22;4307;53.868;11.680;2022-12-11T00:56:09;-6.80;99.90
8539;DHT22;4307;53.868;11.680;2022-12-11T00:58:35;-6.80;99.90
8539;DHT22;4307;53.868;11.680;2022-12-11T01:01:05;-6.80;99.90
8539;DHT22;4307;53.868;11.680;2022-12-11T01:03:32;-6.80;99.90
8539;DHT22;4307;53.868;11.680;2022-12-11T01:05:59;-6.80;99.90
8539;DHT22;4307;53.868;11.680;2022-12-11T01:08:25;-6.80;99.90
8539;DHT22;4307;53.868;11.680;2022-12-11T01:11:02;-6.80;99.90
8539;DHT22;4307;53.868;11.680;2022-12-11T01:13:28;-6.90;99.90
8539;DHT22;4307;53.868;11.680;2022-12-11T01:15:55;-6.90;99.90
8539;DHT22;4307;53.868;11.680;2022-12-11T01:18:22;-6.90;99.90
8539;DHT22;4307;53.868;11.680;2022-12-11T01:20:48;-6.90;99.90
8539;DHT22;4307;53.868;11.680;2022-12-11T01:23:15;-6.90;99.90
8539;DHT22;4307;53.868;11.680;2022-12-11T01:25:42;-6.90;99.90
8539;DHT22;4307;53.868;11.680;2022-12-11T01:28:10;-6.90;99.90
8539;DHT22;4307;53.868;11.680;2022-12-11T01:30:37;-6.90;99.90
8539;DHT22;4307;53.868;11.680;2022-12-11T01:33:05;-6.90;99.90
8539;DHT22;4307;53.868;11.680;2022-12-11T01:35:32;-6.90;99.90
8539;DHT22;4307;53.868;11.680;2022-12-11T01:37:59;-6.90;99.90
8539;DHT22;4307;53.868;11.680;2022-12-11T01:40:25;-7.00;99.90
8539;DHT22;4307;53.868;11.680;2022-12-11T01:42:52;-7.00;99.90
8539;DHT22;4307;53.868;11.680;2022-12-11T01:45:28;-7.00;99.90
8539;DHT22;4307;53.868;11.680;2022-12-11T01:48:00;-7.10;99.90
8539;DHT22;4307;53.868;11.680;2022-12-11T01:50:28;-7.10;99.90
8539;DHT22;4307;53.868;11.680;2022-12-11T01:52:56;-7.00;99.90
8539;DHT22;4307;53.868;11.680;2022-12-11T01:55:24;-7.10;99.90
8539;DHT22;4307;53.868;11.680;2022-12-11T01:57:51;-7.00;99.90
8539;DHT22;4307;53.868;11.680;2022-12-11T02:00:20;-7.00;99.90
8539;DHT22;4307;53.868;11.680;2022-12-11T02:02:48;-7.00;99.90
8539;DHT22;4307;53.868;11.680;2022-12-11T02:05:14;-7.00;99.90
8539;DHT22;4307;53.868;11.680;2022-12-11T02:07:43;-7.00;99.90
8539;DHT22;4307;53.868;11.680;2022-12-11T02:10:11;-7.00;99.90
8539;DHT22;4307;53.868;11.680;2022-12-11T02:12:44;-7.00;99.90
8539;DHT22;4307;53.868;11.680;2022-12-11T02:15:20;-6.90;99.90
8539;DHT22;4307;53.868;11.680;2022-12-11T02:17:56;-6.90;99.90
8539;DHT22;4307;53.868;11.680;2022-12-11T02:20:27;-6.90;99.90
8539;DHT22;4307;53.868;11.680;2022-12-11T02:23:23;-6.80;99.90
8539;DHT22;4307;53.868;11.680;2022-12-11T02:25:59;-6.80;99.90
8539;DHT22;4307;53.868;11.680;2022-12-11T02:28:35;-6.90;99.90
8539;DHT22;4307;53.868;11.680;2022-12-11T02:31:09;-6.80;99.90
8539;DHT22;4307;53.868;11.680;2022-12-11T02:33:42;-6.80;99.90
8539;DHT22;4307;53.868;11.680;2022-12-11T02:36:09;-6.80;99.90
8539;DHT22;4307;53.868;11.680;2022-12-11T02:38:39;-6.80;99.90
8539;DHT22;4307;53.868;11.680;2022-12-11T02:41:07;-6.80;99.90
8539;DHT22;4307;53.868;11.680;2022-12-11T02:43:37;-6.80;99.90
8539;DHT22;4307;53.868;11.680;2022-12-11T02:46:05;-6.80;99.90
8539;DHT22;4307;53.868;11.680;2022-12-11T02:48:33;-6.90;99.90
8539;DHT22;4307;53.868;11.680;2022-12-11T02:51:02;-6.90;99.90
8539;DHT22;4307;53.868;11.680;2022-12-11T02:53:31;-6.90;99.90
8539;DHT22;4307;53.868;11.680;2022-12-11T02:56:05;-7.00;99.90
8539;DHT22;4307;53.868;11.680;2022-12-11T02:58:38;-6.90;99.90
8539;DHT22;4307;53.868;11.680;2022-12-11T03:01:09;-6.90;99.90
8539;DHT22;4307;53.868;11.680;2022-12-11T03:03:36;-7.00;99.90
8539;DHT22;4307;53.868;11.680;2022-12-11T03:06:03;-7.00;99.90
8539;DHT22;4307;53.868;11.680;2022-12-11T03:08:30;-7.00;99.90
8539;DHT22;4307;53.868;11.680;2022-12-11T03:10:57;-7.00;99.90
8539;DHT22;4307;53.868;11.680;2022-12-11T03:13:24;-7.00;99.90
8539;DHT22;4307;53.868;11.680;2022-12-11T03:16:02;-7.00;99.90
8539;DHT22;4307;53.868;11.680;2022-12-11T03:18:35;-7.00;99.90
8539;DHT22;4307;53.868;11.680;2022-12-11T03:21:08;-7.00;99.90
8539;DHT22;4307;53.868;11.680;2022-12-11T03:23:42;-7.00;99.90
8539;DHT22;4307;53.868;11.680;2022-12-11T03:26:11;-7.00;99.90
8539;DHT22;4307;53.868;11.680;2022-12-11T03:28:44;-7.00;99.90
8539;DHT22;4307;53.868;11.680;2022-12-11T03:31:19;-7.00;99.90
8539;DHT22;4307;53.868;11.680;2022-12-11T03:33:49;-7.00;99.90
8539;DHT22;4307;53.868;11.680;2022-12-11T03:36:21;-6.90;99.90
8539;DHT22;4307;53.868;11.680;2022-12-11T03:38:51;-6.90;99.90
8539;DHT22;4307;53.868;11.680;2022-12-11T03:41:21;-6.80;99.90
8539;DHT22;4307;53.868;11.680;2022-12-11T03:43:53;-6.80;99.90
8539;DHT22;4307;53.868;11.680;2022-12-11T03:46:27;-6.80;99.90
8539;DHT22;4307;53.868;11.680;2022-12-11T03:48:58;-6.70;99.90
8539;DHT22;4307;53.868;11.680;2022-12-11T03:51:28;-6.70;99.90
8539;DHT22;4307;53.868;11.680;2022-12-11T03:53:56;-6.60;99.90
8539;DHT22;4307;53.868;11.680;2022-12-11T03:56:24;-6.50;99.90
8539;DHT22;4307;53.868;11.680;2022-12-11T03:58:52;-6.50;99.90
8539;DHT22;4307;53.868;11.680;2022-12-11T04:01:19;-6.40;99.90
8539;DHT22;4307;53.868;11.680;2022-12-11T04:03:47;-6.40;99.90
8539;DHT22;4307;53.868;11.680;2022-12-11T04:06:14;-6.30;99.90
8539;DHT22;4307;53.868;11.680;2022-12-11T04:08:40;-6.30;99.90
8539;DHT22;4307;53.868;11.680;2022-12-11T04:11:07;-6.30;99.90
8539;DHT22;4307;53.868;11.680;2022-12-11T04:13:51;-6.30;99.90
8539;DHT22;4307;53.868;11.680;2022-12-11T04:16:32;-6.30;99.90
8539;DHT22;4307;53.868;11.680;2022-12-11T04:19:00;-6.30;99.90
8539;DHT22;4307;53.868;11.680;2022-12-11T04:21:44;-6.20;99.90
8539;DHT22;4307;53.868;11.680;2022-12-11T04:24:28;-6.20;99.90
8539;DHT22;4307;53.868;11.680;2022-12-11T04:26:55;-6.10;99.90
8539;DHT22;4307;53.868;11.680;2022-12-11T04:29:21;-6.00;99.90
8539;DHT22;4307;53.868;11.680;2022-12-11T04:31:48;-5.90;99.90
8539;DHT22;4307;53.868;11.680;2022-12-11T04:34:17;-5.80;99.90
8539;DHT22;4307;53.868;11.680;2022-12-11T04:36:44;-5.70;99.90
8539;DHT22;4307;53.868;11.680;2022-12-11T04:39:10;-5.60;99.90
8539;DHT22;4307;53.868;11.680;2022-12-11T04:41:37;-5.50;99.90
8539;DHT22;4307;53.868;11.680;2022-12-11T04:44:06;-5.50;99.90
8539;DHT22;4307;53.868;11.680;2022-12-11T04:46:32;-5.40;99.90
8539;DHT22;4307;53.868;11.680;2022-12-11T04:48:59;-5.40;99.90
8539;DHT22;4307;53.868;11.680;2022-12-11T04:51:27;-5.30;99.90
8539;DHT22;4307;53.868;11.680;2022-12-11T04:53:54;-5.30;99.90
8539;DHT22;4307;53.868;11.680;2022-12-11T04:56:21;-5.20;99.90
8539;DHT22;4307;53.868;11.680;2022-12-11T04:58:48;-5.10;99.90
8539;DHT22;4307;53.868;11.680;2022-12-11T05:01:16;-5.10;99.90
8539;DHT22;4307;53.868;11.680;2022-12-11T05:03:44;-5.00;99.90
8539;DHT22;4307;53.868;11.680;2022-12-11T05:06:11;-5.00;99.90
8539;DHT22;4307;53.868;11.680;2022-12-11T05:08:40;-4.90;99.90
8539;DHT22;4307;53.868;11.680;2022-12-11T05:11:09;-4.90;99.90
8539;DHT22;4307;53.868;11.680;2022-12-11T05:13:36;-4.80;99.90
8539;DHT22;4307;53.868;11.680;2022-12-11T05:16:03;-4.80;99.90
8539;DHT22;4307;53.868;11.680;2022-12-11T05:18:30;-4.70;99.90
8539;DHT22;4307;53.868;11.680;2022-12-11T05:20:58;-4.70;99.90
8539;DHT22;4307;53.868;11.680;2022-12-11T05:23:26;-4.60;99.90
8539;DHT22;4307;53.868;11.680;2022-12-11T05:25:55;-4.50;99.90
8539;DHT22;4307;53.868;11.680;2022-12-11T05:28:24;-4.40;99.90
8539;DHT22;4307;53.868;11.680;2022-12-11T05:30:54;-4.40;99.90
8539;DHT22;4307;53.868;11.680;2022-12-11T05:33:22;-4.30;99.90
8539;DHT22;4307;53.868;11.680;2022-12-11T05:35:48;-4.20;99.90
8539;DHT22;4307;53.868;11.680;2022-12-11T05:38:15;-4.10;99.90
8539;DHT22;4307;53.868;11.680;2022-12-11T05:40:42;-4.10;99.90
8539;DHT22;4307;53.868;11.680;2022-12-11T05:43:10;-4.00;99.90
8539;DHT22;4307;53.868;11.680;2022-12-11T05:45:36;-4.00;99.90
8539;DHT22;4307;53.868;11.680;2022-12-11T05:48:03;-4.00;99.90
8539;DHT22;4307;53.868;11.680;2022-12-11T05:50:30;-3.90;99.90
8539;DHT22;4307;53.868;11.680;2022-12-11T05:52:57;-3.90;99.90
8539;DHT22;4307;53.868;11.680;2022-12-11T05:55:24;-3.80;99.90
8539;DHT22;4307;53.868;11.680;2022-12-11T05:57:50;-3.70;99.90
8539;DHT22;4307;53.868;11.680;2022-12-11T06:00:18;-3.70;99.90
8539;DHT22;4307;53.868;11.680;2022-12-11T06:02:45;-3.70;99.90
8539;DHT22;4307;53.868;11.680;2022-12-11T06:05:11;-3.70;99.90
8539;DHT22;4307;53.868;11.680;2022-12-11T06:07:38;-3.70;99.90
8539;DHT22;4307;53.868;11.680;2022-12-11T06:10:05;-3.60;99.90
8539;DHT22;4307;53.868;11.680;2022-12-11T06:12:32;-3.60;99.90
8539;DHT22;4307;53.868;11.680;2022-12-11T06:14:59;-3.60;99.90
8539;DHT22;4307;53.868;11.680;2022-12-11T06:17:27;-3.50;99.90
8539;DHT22;4307;53.868;11.680;2022-12-11T06:19:53;-3.40;99.90
8539;DHT22;4307;53.868;11.680;2022-12-11T06:22:20;-3.30;99.90
8539;DHT22;4307;53.868;11.680;2022-12-11T06:24:47;-3.20;99.90
8539;DHT22;4307;53.868;11.680;2022-12-11T06:27:13;-3.10;99.90
8539;DHT22;4307;53.868;11.680;2022-12-11T06:29:40;-3.00;99.90
8539;DHT22;4307;53.868;11.680;2022-12-11T06:32:07;-3.00;99.90
8539;DHT22;4307;53.868;11.680;2022-12-11T06:34:34;-2.90;99.90
8539;DHT22;4307;53.868;11.680;2022-12-11T06:37:01;-2.80;99.90
8539;DHT22;4307;53.868;11.680;2022-12-11T06:39:28;-2.80;99.90
8539;DHT22;4307;53.868;11.680;2022-12-11T06:41:54;-2.70;99.90
8539;DHT22;4307;53.868;11.680;2022-12-11T06:44:21;-2.70;99.90
8539;DHT22;4307;53.868;11.680;2022-12-11T06:46:49;-2.60;99.90
8539;DHT22;4307;53.868;11.680;2022-12-11T06:49:15;-2.60;99.90
8539;DHT22;4307;53.868;11.680;2022-12-11T06:51:43;-2.50;99.90
8539;DHT22;4307;53.868;11.680;2022-12-11T06:54:10;-2.50;99.90
8539;DHT22;4307;53.868;11.680;2022-12-11T06:56:37;-2.40;99.90
8539;DHT22;4307;53.868;11.680;2022-12-11T06:59:05;-2.40;99.90
8539;DHT22;4307;53.868;11.680;2022-12-11T07:01:32;-2.40;99.90
8539;DHT22;4307;53.868;11.680;2022-12-11T07:03:59;-2.30;99.90
8539;DHT22;4307;53.868;11.680;2022-12-11T07:06:27;-2.40;99.90
8539;DHT22;4307;53.868;11.680;2022-12-11T07:08:55;-2.40;99.90
8539;DHT22;4307;53.868;11.680;2022-12-11T07:11:22;-2.40;99.90
8539;DHT22;4307;53.868;11.680;2022-12-11T07:13:50;-2.30;99.90
8539;DHT22;4307;53.868;11.680;2022-12-11T07:16:17;-2.30;99.90
8539;DHT22;4307;53.868;11.680;2022-12-11T07:18:46;-2.20;99.90
8539;DHT22;4307;53.868;11.680;2022-12-11T07:21:14;-2.20;99.90
8539;DHT22;4307;53.868;11.680;2022-12-11T07:23:41;-2.10;99.90
8539;DHT22;4307;53.868;11.680;2022-12-11T07:26:10;-2.10;99.90
8539;DHT22;4307;53.868;11.680;2022-12-11T07:28:38;-2.00;99.90
8539;DHT22;4307;53.868;11.680;2022-12-11T07:31:05;-2.00;99.90
8539;DHT22;4307;53.868;11.680;2022-12-11T07:33:32;-2.00;99.90
8539;DHT22;4307;53.868;11.680;2022-12-11T07:36:00;-1.90;99.90
8539;DHT22;4307;53.868;11.680;2022-12-11T07:38:28;-1.90;99.90
8539;DHT22;4307;53.868;11.680;2022-12-11T07:40:54;-1.80;99.90
8539;DHT22;4307;53.868;11.680;2022-12-11T07:43:22;-1.80;99.90
8539;DHT22;4307;53.868;11.680;2022-12-11T07:45:49;-1.80;99.90
8539;DHT22;4307;53.868;11.680;2022-12-11T07:48:16;-1.80;99.90
8539;DHT22;4307;53.868;11.680;2022-12-11T07:50:42;-1.70;99.90
8539;DHT22;4307;53.868;11.680;2022-12-11T07:53:09;-1.70;99.90
8539;DHT22;4307;53.868;11.680;2022-12-11T07:55:36;-1.60;99.90
8539;DHT22;4307;53.868;11.680;2022-12-11T07:58:03;-1.60;99.90
8539;DHT22;4307;53.868;11.680;2022-12-11T08:00:31;-1.60;99.90
8539;DHT22;4307;53.868;11.680;2022-12-11T08:02:57;-1.50;99.90
8539;DHT22;4307;53.868;11.680;2022-12-11T08:05:24;-1.50;99.90
8539;DHT22;4307;53.868;11.680;2022-12-11T08:07:50;-1.50;99.90
8539;DHT22;4307;53.868;11.680;2022-12-11T08:10:17;-1.50;99.90
8539;DHT22;4307;53.868;11.680;2022-12-11T08:12:44;-1.40;99.90
8539;DHT22;4307;53.868;11.680;2022-12-11T08:15:11;-1.40;99.90
8539;DHT22;4307;53.868;11.680;2022-12-11T08:17:39;-1.30;99.90
8539;DHT22;4307;53.868;11.680;2022-12-11T08:20:06;-1.40;99.90
8539;DHT22;4307;53.868;11.680;2022-12-11T08:22:33;-1.30;99.90
8539;DHT22;4307;53.868;11.680;2022-12-11T08:25:00;-1.30;99.90
8539;DHT22;4307;53.868;11.680;2022-12-11T08:27:27;-1.20;99.90
8539;DHT22;4307;53.868;11.680;2022-12-11T08:29:54;-1.20;99.90
8539;DHT22;4307;53.868;11.680;2022-12-11T08:32:20;-1.10;99.90
8539;DHT22;4307;53.868;11.680;2022-12-11T08:34:50;-1.20;99.90
8539;DHT22;4307;53.868;11.680;2022-12-11T08:37:16;-1.10;99.90
8539;DHT22;4307;53.868;11.680;2022-12-11T08:39:43;-1.10;99.90
8539;DHT22;4307;53.868;11.680;2022-12-11T08:42:11;-1.00;99.90
8539;DHT22;4307;53.868;11.680;2022-12-11T08:44:38;-1.00;99.90
8539;DHT22;4307;53.868;11.680;2022-12-11T08:47:04;-1.00;99.90
8539;DHT22;4307;53.868;11.680;2022-12-11T08:49:31;-0.90;99.90
8539;DHT22;4307;53.868;11.680;2022-12-11T08:51:59;-0.90;99.90
8539;DHT22;4307;53.868;11.680;2022-12-11T08:54:25;-0.90;99.90
8539;DHT22;4307;53.868;11.680;2022-12-11T08:56:53;-0.80;99.90
8539;DHT22;4307;53.868;11.680;2022-12-11T08:59:20;-0.70;99.90
8539;DHT22;4307;53.868;11.680;2022-12-11T09:01:46;-0.70;99.90
8539;DHT22;4307;53.868;11.680;2022-12-11T09:04:13;-0.70;99.90
8539;DHT22;4307;53.868;11.680;2022-12-11T09:06:40;-0.70;99.90
8539;DHT22;4307;53.868;11.680;2022-12-11T09:09:08;-0.70;99.90
8539;DHT22;4307;53.868;11.680;2022-12-11T09:11:35;-0.70;99.90
8539;DHT22;4307;53.868;11.680;2022-12-11T09:14:03;-0.60;99.90
8539;DHT22;4307;53.868;11.680;2022-12-11T09:16:30;-0.60;99.90
8539;DHT22;4307;53.868;11.680;2022-12-11T09:18:58;-0.50;99.90
8539;DHT22;4307;53.868;11.680;2022-12-11T09:21:27;-0.50;99.90
8539;DHT22;4307;53.868;11.680;2022-12-11T09:23:55;-0.40;99.90
8539;DHT22;4307;53.868;11.680;2022-12-11T09:26:24;-0.30;99.90
8539;DHT22;4307;53.868;11.680;2022-12-11T09:28:52;-0.30;99.90
8539;DHT22;4307;53.868;11.680;2022-12-11T09:31:20;-0.30;99.90
8539;DHT22;4307;53.868;11.680;2022-12-11T09:33:48;-0.30;99.90
8539;DHT22;4307;53.868;11.680;2022-12-11T09:36:16;-0.20;99.90
8539;DHT22;4307;53.868;11.680;2022-12-11T09:38:42;-0.20;99.90
8539;DHT22;4307;53.868;11.680;2022-12-11T09:41:28;-0.20;99.90
8539;DHT22;4307;53.868;11.680;2022-12-11T09:44:01;-0.10;99.90
8539;DHT22;4307;53.868;11.680;2022-12-11T09:46:31;-0.10;99.90
8539;DHT22;4307;53.868;11.680;2022-12-11T09:49:01;0.00;99.90
8539;DHT22;4307;53.868;11.680;2022-12-11T09:51:32;0.00;99.90
8539;DHT22;4307;53.868;11.680;2022-12-11T09:54:02;0.00;99.90
8539;DHT22;4307;53.868;11.680;2022-12-11T09:56:32;0.10;99.90
8539;DHT22;4307;53.868;11.680;2022-12-11T09:59:08;0.10;99.90
8539;DHT22;4307;53.868;11.680;2022-12-11T10:01:42;0.10;99.90
8539;DHT22;4307;53.868;11.680;2022-12-11T10:04:32;0.10;99.90
8539;DHT22;4307;53.868;11.680;2022-12-11T10:07:09;0.10;99.90
8539;DHT22;4307;53.868;11.680;2022-12-11T10:09:42;0.10;99.90
8539;DHT22;4307;53.868;11.680;2022-12-11T10:12:22;0.10;99.90
8539;DHT22;4307;53.868;11.680;2022-12-11T10:15:07;0.20;99.90
8539;DHT22;4307;53.868;11.680;2022-12-11T10:17:38;0.20;99.90
8539;DHT22;4307;53.868;11.680;2022-12-11T10:20:16;0.30;99.90
8539;DHT22;4307;53.868;11.680;2022-12-11T10:22:45;0.30;99.90
8539;DHT22;4307;53.868;11.680;2022-12-11T10:25:19;0.40;99.90
8539;DHT22;4307;53.868;11.680;2022-12-11T10:27:47;0.50;99.90
8539;DHT22;4307;53.868;11.680;2022-12-11T10:30:16;0.50;99.90
8539;DHT22;4307;53.868;11.680;2022-12-11T10:32:50;0.60;99.90
8539;DHT22;4307;53.868;11.680;2022-12-11T10:35:22;0.60;99.90
8539;DHT22;4307;53.868;11.680;2022-12-11T10:37:51;0.70;99.90
8539;DHT22;4307;53.868;11.680;2022-12-11T10:40:22;0.70;99.90
8539;DHT22;4307;53.868;11.680;2022-12-11T10:42:52;0.80;99.90
8539;DHT22;4307;53.868;11.680;2022-12-11T10:45:19;0.90;99.90
8539;DHT22;4307;53.868;11.680;2022-12-11T10:47:46;0.90;99.90
8539;DHT22;4307;53.868;11.680;2022-12-11T10:50:22;1.00;99.90
8539;DHT22;4307;53.868;11.680;2022-12-11T10:52:49;1.00;99.90
8539;DHT22;4307;53.868;11.680;2022-12-11T10:55:19;1.10;99.90
8539;DHT22;4307;53.868;11.680;2022-12-11T10:57:55;1.10;99.90
8539;DHT22;4307;53.868;11.680;2022-12-11T11:00:30;1.20;99.90
8539;DHT22;4307;53.868;11.680;2022-12-11T11:02:57;1.20;99.90
8539;DHT22;4307;53.868;11.680;2022-12-11T11:05:29;1.20;99.90
8539;DHT22;4307;53.868;11.680;2022-12-11T11:08:13;1.20;99.90
8539;DHT22;4307;53.868;11.680;2022-12-11T11:10:50;1.20;99.90
8539;DHT22;4307;53.868;11.680;2022-12-11T11:13:20;1.20;99.90
8539;DHT22;4307;53.868;11.680;2022-12-11T11:15:47;1.20;99.90
8539;DHT22;4307;53.868;11.680;2022-12-11T11:18:21;1.30;99.90
8539;DHT22;4307;53.868;11.680;2022-12-11T11:20:49;1.30;99.90
8539;DHT22;4307;53.868;11.680;2022-12-11T11:23:18;1.40;99.90
8539;DHT22;4307;53.868;11.680;2022-12-11T11:25:50;1.40;99.90
8539;DHT22;4307;53.868;11.680;2022-12-11T11:28:20;1.40;99.90
8539;DHT22;4307;53.868;11.680;2022-12-11T11:30:59;1.50;99.90
8539;DHT22;4307;53.868;11.680;2022-12-11T11:33:28;1.50;99.90
8539;DHT22;4307;53.868;11.680;2022-12-11T11:35:57;1.50;99.90
8539;DHT22;4307;53.868;11.680;2022-12-11T11:38:27;1.60;99.90
8539;DHT22;4307;53.868;11.680;2022-12-11T11:40:57;1.70;99.90
8539;DHT22;4307;53.868;11.680;2022-12-11T11:43:33;1.70;99.90
8539;DHT22;4307;53.868;11.680;2022-12-11T11:46:04;1.70;99.90
8539;DHT22;4307;53.868;11.680;2022-12-11T11:48:39;1.70;99.90
8539;DHT22;4307;53.868;11.680;2022-12-11T11:51:14;1.70;99.90
8539;DHT22;4307;53.868;11.680;2022-12-11T11:53:45;1.80;99.90
8539;DHT22;4307;53.868;11.680;2022-12-11T11:56:17;1.80;99.90
8539;DHT22;4307;53.868;11.680;2022-12-11T11:58:59;1.80;99.90
8539;DHT22;4307;53.868;11.680;2022-12-11T12:01:27;1.90;99.90
8539;DHT22;4307;53.868;11.680;2022-12-11T12:03:54;1.90;99.90
8539;DHT22;4307;53.868;11.680;2022-12-11T12:06:33;1.80;99.90
8539;DHT22;4307;53.868;11.680;2022-12-11T12:09:12;1.80;99.90
8539;DHT22;4307;53.868;11.680;2022-12-11T12:11:46;1.80;99.90
8539;DHT22;4307;53.868;11.680;2022-12-11T12:14:20;1.80;99.90
8539;DHT22;4307;53.868;11.680;2022-12-11T12:16:57;1.80;99.90
8539;DHT22;4307;53.868;11.680;2022-12-11T12:19:36;1.80;99.90
8539;DHT22;4307;53.868;11.680;2022-12-11T12:22:14;1.80;99.90
8539;DHT22;4307;53.868;11.680;2022-12-11T12:24:49;1.80;99.90
8539;DHT22;4307;53.868;11.680;2022-12-11T12:27:22;1.80;99.90
8539;DHT22;4307;53.868;11.680;2022-12-11T12:29:59;1.80;99.90
8539;DHT22;4307;53.868;11.680;2022-12-11T12:32:33;1.70;99.90
8539;DHT22;4307;53.868;11.680;2022-12-11T12:35:15;1.70;99.90
8539;DHT22;4307;53.868;11.680;2022-12-11T12:37:56;1.70;99.90
8539;DHT22;4307;53.868;11.680;2022-12-11T12:40:29;1.60;99.90
8539;DHT22;4307;53.868;11.680;2022-12-11T12:43:04;1.60;99.90
8539;DHT22;4307;53.868;11.680;2022-12-11T12:45:36;1.60;99.90
8539;DHT22;4307;53.868;11.680;2022-12-11T12:48:07;1.70;99.90
8539;DHT22;4307;53.868;11.680;2022-12-11T12:50:37;1.70;99.90
8539;DHT22;4307;53.868;11.680;2022-12-11T12:53:06;1.70;99.90
8539;DHT22;4307;53.868;11.680;2022-12-11T12:55:35;1.70;99.90
8539;DHT22;4307;53.868;11.680;2022-12-11T12:58:03;1.70;99.90
8539;DHT22;4307;53.868;11.680;2022-12-11T13:00:33;1.70;99.90
8539;DHT22;4307;53.868;11.680;2022-12-11T13:03:11;1.70;99.90
8539;DHT22;4307;53.868;11.680;2022-12-11T13:05:41;1.70;99.90
8539;DHT22;4307;53.868;11.680;2022-12-11T13:08:10;1.60;99.90
8539;DHT22;4307;53.868;11.680;2022-12-11T13:10:39;1.60;99.90
8539;DHT22;4307;53.868;11.680;2022-12-11T13:13:32;1.60;99.90
8539;DHT22;4307;53.868;11.680;2022-12-11T13:16:23;1.60;99.90
8539;DHT22;4307;53.868;11.680;2022-12-11T13:18:51;1.50;99.90
8539;DHT22;4307;53.868;11.680;2022-12-11T13:21:39;1.50;99.90
8539;DHT22;4307;53.868;11.680;2022-12-11T13:24:16;1.50;99.90
8539;DHT22;4307;53.868;11.680;2022-12-11T13:26:50;1.50;99.90
8539;DHT22;4307;53.868;11.680;2022-12-11T13:29:31;1.50;99.90
8539;DHT22;4307;53.868;11.680;2022-12-11T13:32:01;1.60;99.90
8539;DHT22;4307;53.868;11.680;2022-12-11T13:34:31;1.60;99.90
8539;DHT22;4307;53.868;11.680;2022-12-11T13:36:58;1.60;99.90
8539;DHT22;4307;53.868;11.680;2022-12-11T13:39:29;1.60;99.90
8539;DHT22;4307;53.868;11.680;2022-12-11T13:42:00;1.60;99.90
8539;DHT22;4307;53.868;11.680;2022-12-11T13:44:28;1.60;99.90
8539;DHT22;4307;53.868;11.680;2022-12-11T13:47:00;1.60;99.90
8539;DHT22;4307;53.868;11.680;2022-12-11T13:49:29;1.60;99.90
8539;DHT22;4307;53.868;11.680;2022-12-11T13:52:00;1.60;99.90
8539;DHT22;4307;53.868;11.680;2022-12-11T13:54:30;1.50;99.90
8539;DHT22;4307;53.868;11.680;2022-12-11T13:57:01;1.50;99.90
8539;DHT22;4307;53.868;11.680;2022-12-11T13:59:31;1.50;99.90
8539;DHT22;4307;53.868;11.680;2022-12-11T14:02:04;1.60;99.90
8539;DHT22;4307;53.868;11.680;2022-12-11T14:04:36;1.60;99.90
8539;DHT22;4307;53.868;11.680;2022-12-11T14:07:06;1.60;99.90
8539;DHT22;4307;53.868;11.680;2022-12-11T14:09:36;1.60;99.90
8539;DHT22;4307;53.868;11.680;2022-12-11T14:12:05;1.60;99.90
8539;DHT22;4307;53.868;11.680;2022-12-11T14:14:38;1.60;99.90
8539;DHT22;4307;53.868;11.680;2022-12-11T14:17:12;1.60;99.90
8539;DHT22;4307;53.868;11.680;2022-12-11T14:19:44;1.60;99.90
8539;DHT22;4307;53.868;11.680;2022-12-11T14:22:17;1.60;99.90
8539;DHT22;4307;53.868;11.680;2022-12-11T14:24:48;1.60;99.90
8539;DHT22;4307;53.868;11.680;2022-12-11T14:27:16;1.50;99.90
8539;DHT22;4307;53.868;11.680;2022-12-11T14:29:44;1.50;99.90
8539;DHT22;4307;53.868;11.680;2022-12-11T14:32:17;1.40;99.90
8539;DHT22;4307;53.868;11.680;2022-12-11T14:34:46;1.30;99.90
8539;DHT22;4307;53.868;11.680;2022-12-11T14:37:15;1.30;99.90
8539;DHT22;4307;53.868;11.680;2022-12-11T14:39:46;1.20;99.90
8539;DHT22;4307;53.868;11.680;2022-12-11T14:42:18;1.10;99.90
8539;DHT22;4307;53.868;11.680;2022-12-11T14:44:47;1.10;99.90
8539;DHT22;4307;53.868;11.680;2022-12-11T14:47:18;1.00;99.90
8539;DHT22;4307;53.868;11.680;2022-12-11T14:49:49;1.00;99.90
8539;DHT22;4307;53.868;11.680;2022-12-11T14:52:19;1.00;99.90
8539;DHT22;4307;53.868;11.680;2022-12-11T14:54:49;1.00;99.90
8539;DHT22;4307;53.868;11.680;2022-12-11T14:57:19;1.00;99.90
8539;DHT22;4307;53.868;11.680;2022-12-11T14:59:47;1.00;99.90
8539;DHT22;4307;53.868;11.680;2022-12-11T15:02:26;1.00;99.90
8539;DHT22;4307;53.868;11.680;2022-12-11T15:05:06;0.90;99.90
8539;DHT22;4307;53.868;11.680;2022-12-11T15:07:36;0.90;99.90
8539;DHT22;4307;53.868;11.680;2022-12-11T15:10:04;0.90;99.90
8539;DHT22;4307;53.868;11.680;2022-12-11T15:12:31;0.90;99.90
8539;DHT22;4307;53.868;11.680;2022-12-11T15:15:02;0.80;99.90
8539;DHT22;4307;53.868;11.680;2022-12-11T15:17:31;0.80;99.90
8539;DHT22;4307;53.868;11.680;2022-12-11T15:20:02;0.80;99.90
8539;DHT22;4307;53.868;11.680;2022-12-11T15:22:31;0.70;99.90
8539;DHT22;4307;53.868;11.680;2022-12-11T15:24:58;0.70;99.90
8539;DHT22;4307;53.868;11.680;2022-12-11T15:27:33;0.70;99.90
8539;DHT22;4307;53.868;11.680;2022-12-11T15:30:01;0.70;99.90
8539;DHT22;4307;53.868;11.680;2022-12-11T15:32:31;0.70;99.90
8539;DHT22;4307;53.868;11.680;2022-12-11T15:34:59;0.70;99.90
8539;DHT22;4307;53.868;11.680;2022-12-11T15:37:27;0.70;99.90
8539;DHT22;4307;53.868;11.680;2022-12-11T15:39:56;0.70;99.90
8539;DHT22;4307;53.868;11.680;2022-12-11T15:42:25;0.70;99.90
8539;DHT22;4307;53.868;11.680;2022-12-11T15:44:52;0.70;99.90
8539;DHT22;4307;53.868;11.680;2022-12-11T15:47:21;0.70;99.90
8539;DHT22;4307;53.868;11.680;2022-12-11T15:49:52;0.70;99.90
8539;DHT22;4307;53.868;11.680;2022-12-11T15:52:19;0.70;99.90
8539;DHT22;4307;53.868;11.680;2022-12-11T15:54:46;0.70;99.90
8539;DHT22;4307;53.868;11.680;2022-12-11T15:57:15;0.70;99.90
8539;DHT22;4307;53.868;11.680;2022-12-11T15:59:43;0.70;99.90
8539;DHT22;4307;53.868;11.680;2022-12-11T16:02:13;0.70;99.90
8539;DHT22;4307;53.868;11.680;2022-12-11T16:04:40;0.70;99.90
8539;DHT22;4307;53.868;11.680;2022-12-11T16:07:14;0.70;99.90
8539;DHT22;4307;53.868;11.680;2022-12-11T16:09:42;0.70;99.90